»·PEaware :: SWA503 KSEA-KGEG

SWA503 :: KSEA-KGEG

FLIGHT INFORMATION

Flight Status: Arrived
Operator:
Southwest Airlines
More flights by this operator :: More flights under this callsign
Pilot: Steve F. (26981)
Aircraft: BOEING 737-900
(B739)
More flights by this aircraft type
Origin: KSEA Seattle-Tacoma Intl
United States
Destination: KGEG Spokane Intl
United States
More flights between these airports :: More routes between these airports
Route: SEA8 ZADON ZELAK ZIRAN ZOOMR ZOOMR2
File this flight plan on PilotEdge
Remarks:
Altitude:
(Current/Filed)
29,000ft
Speed:
(Current/Filed)
453kts
Departed: 08-Oct-23 03:10 PM
Arrived: 08-Oct-23 03:47 PM
Distance/Time
Traveled:
194nm/0:36
Distance/Time
To Go:
Arrived

Flight Plot

Page will automatically refresh every two minutes.

Flight plan parsing failed; only flown route is shown


Map Options




Map Legend


Flown Route
Filed Route
Departure Airport
Arrival Airport
Navaid (VOR, NDB)
Fix

Horizontal Profiles

Position Reports

Time Latitude Longitude Heading Altitude Ground
Speed
08-Oct-23 14:49 47.440350 -122.304218 46 441ft 0kts
08-Oct-23 14:50 47.440350 -122.304218 46 441ft 0kts
08-Oct-23 14:51 47.440350 -122.304218 46 441ft 0kts
08-Oct-23 14:52 47.440350 -122.304218 46 441ft 0kts
08-Oct-23 14:53 47.440350 -122.304218 46 441ft 0kts
08-Oct-23 14:54 47.440350 -122.304218 46 441ft 0kts
08-Oct-23 14:55 47.440350 -122.304218 46 441ft 0kts
08-Oct-23 14:56 47.440350 -122.304218 46 441ft 0kts
08-Oct-23 14:57 47.440350 -122.304218 46 441ft 0kts
08-Oct-23 14:58 47.440350 -122.304218 46 441ft 0kts
08-Oct-23 14:59 47.440350 -122.304218 46 441ft 0kts
08-Oct-23 15:00 47.440045 -122.304687 35 441ft 2kts
08-Oct-23 15:01 47.439839 -122.304647 301 441ft 0kts
08-Oct-23 15:02 47.439839 -122.304647 301 441ft 0kts
08-Oct-23 15:03 47.439839 -122.304647 301 441ft 0kts
08-Oct-23 15:04 47.440054 -122.305372 287 441ft 9kts
08-Oct-23 15:05 47.444684 -122.306174 359 441ft 27kts
08-Oct-23 15:06 47.452599 -122.306158 0 441ft 28kts
08-Oct-23 15:07 47.461218 -122.306156 0 441ft 29kts
08-Oct-23 15:08 47.463103 -122.307722 182 441ft 13kts
08-Oct-23 15:09 47.431934 -122.307932 180 928ft 190kts
08-Oct-23 15:10 47.374491 -122.304402 176 3523ft 222kts
08-Oct-23 15:11 47.321421 -122.262487 98 5894ft 258kts
08-Oct-23 15:12 47.358567 -122.163051 55 8531ft 298kts
08-Oct-23 15:13 47.409595 -122.061320 58 11268ft 324kts
08-Oct-23 15:14 47.467396 -121.939557 58 12454ft 396kts
08-Oct-23 15:15 47.532016 -121.802732 57 14924ft 414kts
08-Oct-23 15:16 47.561877 -121.640873 93 17265ft 418kts
08-Oct-23 15:17 47.558520 -121.465365 93 19316ft 433kts
08-Oct-23 15:18 47.555536 -121.283987 93 21085ft 449kts
08-Oct-23 15:19 47.552056 -121.097007 93 22733ft 460kts
08-Oct-23 15:20 47.549145 -120.905621 92 24156ft 470kts
08-Oct-23 15:21 47.545778 -120.710304 93 25378ft 479kts
08-Oct-23 15:22 47.541111 -120.511474 93 26436ft 488kts
08-Oct-23 15:23 47.534523 -120.310511 95 27746ft 486kts
08-Oct-23 15:24 47.524250 -120.110420 95 28813ft 489kts
08-Oct-23 15:25 47.514072 -119.910254 95 28790ft 486kts
08-Oct-23 15:26 47.505049 -119.710723 95 26334ft 487kts
08-Oct-23 15:27 47.494956 -119.512064 95 23730ft 476kts
08-Oct-23 15:28 47.484747 -119.320856 96 21133ft 459kts
08-Oct-23 15:29 47.474629 -119.136089 97 18528ft 443kts
08-Oct-23 15:30 47.464479 -118.957601 97 15928ft 428kts
08-Oct-23 15:31 47.454521 -118.785948 97 13755ft 406kts
08-Oct-23 15:32 47.445187 -118.620942 98 12966ft 402kts
08-Oct-23 15:33 47.434805 -118.455620 98 12960ft 404kts
08-Oct-23 15:34 47.440886 -118.300442 65 12380ft 368kts
08-Oct-23 15:35 47.486383 -118.169469 64 10818ft 346kts
08-Oct-23 15:36 47.528371 -118.049393 64 9943ft 309kts
08-Oct-23 15:37 47.566612 -117.940962 64 8766ft 291kts
08-Oct-23 15:38 47.603543 -117.836225 64 7381ft 282kts
08-Oct-23 15:39 47.639018 -117.734603 64 6090ft 272kts
08-Oct-23 15:40 47.670902 -117.642905 64 5676ft 229kts
08-Oct-23 15:41 47.707874 -117.566020 54 4497ft 217kts
08-Oct-23 15:42 47.734821 -117.493942 98 4428ft 188kts
08-Oct-23 15:43 47.699639 -117.452488 172 4056ft 160kts
08-Oct-23 15:44 47.659617 -117.475271 224 3157ft 158kts
08-Oct-23 15:45 47.628847 -117.521885 226 2360ft 152kts
08-Oct-23 15:46 47.620664 -117.538225 44 2358ft 12kts
08-Oct-23 15:47 47.624157 -117.532965 45 2358ft 19kts
08-Oct-23 15:48 47.625574 -117.533965 270 2358ft 0kts

Navigation Log

Ident Type
Flight plan parsing failed, navigation log unavailable